createdAt,value
2022-12-27T00:01:12.360Z,6.30
2022-12-27T00:03:41.088Z,6.30
2022-12-27T00:06:10.771Z,6.30
2022-12-27T00:08:40.129Z,6.30
2022-12-27T00:11:11.646Z,6.30
2022-12-27T00:13:40.134Z,6.30
2022-12-27T00:16:11.013Z,6.30
2022-12-27T00:18:39.987Z,6.20
2022-12-27T00:21:09.612Z,6.30
2022-12-27T00:23:40.745Z,6.20
2022-12-27T00:26:12.647Z,6.20
2022-12-27T00:28:40.923Z,6.20
2022-12-27T00:31:10.028Z,6.20
2022-12-27T00:33:40.146Z,6.20
2022-12-27T00:36:10.502Z,6.10
2022-12-27T00:38:40.118Z,6.10
2022-12-27T00:41:08.836Z,6.10
2022-12-27T00:43:37.101Z,6.10
2022-12-27T00:46:06.072Z,6.10
2022-12-27T00:48:34.594Z,6.10
2022-12-27T00:51:04.256Z,6.00
2022-12-27T00:53:33.346Z,6.00
2022-12-27T00:56:02.795Z,6.10
2022-12-27T00:58:30.921Z,6.00
2022-12-27T01:01:07.729Z,5.90
2022-12-27T01:03:35.924Z,5.90
2022-12-27T01:06:08.023Z,5.90
2022-12-27T01:08:36.417Z,5.90
2022-12-27T01:11:06.934Z,5.90
2022-12-27T01:13:35.664Z,5.90
2022-12-27T01:16:09.113Z,5.90
2022-12-27T01:18:37.193Z,5.90
2022-12-27T01:21:07.345Z,5.90
2022-12-27T01:23:35.690Z,5.90
2022-12-27T01:26:07.058Z,5.90
2022-12-27T01:28:35.628Z,5.90
2022-12-27T01:31:06.894Z,5.90
2022-12-27T01:33:35.115Z,5.90
2022-12-27T01:36:10.274Z,5.80
2022-12-27T01:38:38.262Z,5.80
2022-12-27T01:41:21.616Z,5.80
2022-12-27T01:43:49.633Z,5.90
2022-12-27T01:46:18.542Z,5.90
2022-12-27T01:48:47.528Z,5.90
2022-12-27T01:51:16.744Z,5.80
2022-12-27T01:53:48.914Z,5.80
2022-12-27T01:56:21.544Z,5.80
2022-12-27T01:58:52.822Z,5.90
2022-12-27T02:01:23.491Z,5.90
2022-12-27T02:03:55.151Z,6.00
2022-12-27T02:06:24.488Z,6.00
2022-12-27T02:08:57.765Z,6.00
2022-12-27T02:11:49.070Z,6.00
2022-12-27T02:14:23.447Z,6.00
2022-12-27T02:16:56.498Z,6.00
2022-12-27T02:19:33.304Z,6.00
2022-12-27T02:22:23.668Z,6.00
2022-12-27T02:25:03.504Z,6.00
2022-12-27T02:27:47.048Z,5.90
2022-12-27T02:30:17.762Z,5.90
2022-12-27T02:32:52.063Z,5.90
2022-12-27T02:35:24.444Z,5.90
2022-12-27T02:37:58.753Z,5.90
2022-12-27T02:40:45.913Z,5.90
2022-12-27T02:43:31.240Z,6.00
2022-12-27T02:46:24.476Z,6.00
2022-12-27T02:49:08.019Z,6.10
2022-12-27T02:52:04.486Z,6.20
2022-12-27T02:54:59.739Z,6.20
2022-12-27T02:57:34.458Z,6.20
2022-12-27T03:00:31.131Z,6.30
2022-12-27T03:03:24.822Z,6.40
2022-12-27T03:06:33.712Z,6.50
2022-12-27T03:09:36.669Z,6.60
2022-12-27T03:12:27.711Z,6.60
2022-12-27T03:15:21.305Z,6.60
2022-12-27T03:17:55.752Z,6.60
2022-12-27T03:20:42.869Z,6.60
2022-12-27T03:23:29.784Z,6.70
2022-12-27T03:26:00.619Z,6.70
2022-12-27T03:28:48.077Z,6.70
2022-12-27T03:31:38.885Z,6.80
2022-12-27T03:34:24.685Z,6.70
2022-12-27T03:37:13.335Z,6.70
2022-12-27T03:39:48.438Z,6.70
2022-12-27T03:42:41.107Z,6.70
2022-12-27T03:45:10.297Z,6.80
2022-12-27T03:47:42.704Z,6.80
2022-12-27T03:50:17.091Z,6.80
2022-12-27T03:52:50.690Z,6.90
2022-12-27T03:55:19.174Z,6.90
2022-12-27T03:57:47.312Z,6.90
2022-12-27T04:00:15.946Z,6.80
2022-12-27T04:02:44.842Z,6.80
2022-12-27T04:05:13.283Z,6.80
2022-12-27T04:07:58.632Z,6.80
2022-12-27T04:10:45.829Z,6.80
2022-12-27T04:13:31.397Z,6.80
2022-12-27T04:16:16.924Z,6.80
2022-12-27T04:19:02.267Z,6.90
2022-12-27T04:21:47.953Z,6.90
2022-12-27T04:24:33.613Z,6.90
2022-12-27T04:27:20.312Z,6.80
2022-12-27T04:30:05.978Z,6.80
2022-12-27T04:32:51.647Z,6.80
2022-12-27T04:35:19.693Z,6.80
2022-12-27T04:37:47.642Z,6.90
2022-12-27T04:40:33.186Z,6.90
2022-12-27T04:43:20.175Z,6.90
2022-12-27T04:46:05.755Z,6.90
2022-12-27T04:48:51.170Z,6.90
2022-12-27T04:51:36.876Z,6.90
2022-12-27T04:54:24.451Z,6.80
2022-12-27T04:56:52.415Z,6.80
2022-12-27T04:59:39.325Z,6.80
2022-12-27T05:02:07.495Z,6.90
2022-12-27T05:04:39.284Z,6.80
2022-12-27T05:07:22.373Z,6.80
2022-12-27T05:10:08.284Z,6.80
2022-12-27T05:12:53.657Z,6.80
2022-12-27T05:15:23.060Z,6.70
2022-12-27T05:17:51.056Z,6.70
2022-12-27T05:20:19.107Z,6.80
2022-12-27T05:23:04.353Z,6.70
2022-12-27T05:25:38.364Z,6.80
2022-12-27T05:28:08.191Z,6.80
2022-12-27T05:30:39.266Z,6.80
2022-12-27T05:33:07.708Z,6.80
2022-12-27T05:35:36.976Z,6.90
2022-12-27T05:38:06.235Z,7.00
2022-12-27T05:40:34.494Z,7.00
2022-12-27T05:43:03.359Z,7.00
2022-12-27T05:45:31.494Z,7.10
2022-12-27T05:48:01.232Z,7.10
2022-12-27T05:50:29.231Z,7.10
2022-12-27T05:53:10.888Z,7.10
2022-12-27T05:55:38.954Z,7.00
2022-12-27T05:58:07.877Z,7.00
2022-12-27T06:00:35.853Z,7.00
2022-12-27T06:03:05.507Z,7.00
2022-12-27T06:05:33.718Z,7.00
2022-12-27T06:08:02.037Z,7.00
2022-12-27T06:10:30.273Z,6.90
2022-12-27T06:13:01.062Z,7.00
2022-12-27T06:15:29.723Z,7.00
2022-12-27T06:17:58.879Z,7.00
2022-12-27T06:20:28.272Z,7.00
2022-12-27T06:22:56.431Z,7.00
2022-12-27T06:25:24.391Z,6.90
2022-12-27T06:27:52.385Z,6.90
2022-12-27T06:30:20.604Z,6.90
2022-12-27T06:32:48.623Z,6.90
2022-12-27T06:35:16.971Z,6.90
2022-12-27T06:37:46.262Z,6.90
2022-12-27T06:40:14.517Z,6.90
2022-12-27T06:42:42.618Z,6.90
2022-12-27T06:45:11.420Z,6.90
2022-12-27T06:47:39.408Z,7.00
2022-12-27T06:50:08.152Z,6.90
2022-12-27T06:52:36.138Z,7.00
2022-12-27T06:55:05.857Z,6.90
2022-12-27T06:57:33.962Z,6.90
2022-12-27T07:00:02.006Z,6.90
2022-12-27T07:02:30.033Z,6.90
2022-12-27T07:04:58.118Z,6.90
2022-12-27T07:07:26.159Z,6.90
2022-12-27T07:09:54.108Z,6.80
2022-12-27T07:12:23.453Z,6.80
2022-12-27T07:14:51.507Z,6.80
2022-12-27T07:17:19.511Z,6.80
2022-12-27T07:19:48.223Z,6.80
2022-12-27T07:22:16.230Z,6.80
2022-12-27T07:24:44.213Z,6.80
2022-12-27T07:27:12.339Z,6.80
2022-12-27T07:29:45.521Z,6.80
2022-12-27T07:32:13.975Z,6.80
2022-12-27T07:34:42.633Z,6.80
2022-12-27T07:37:10.618Z,6.80
2022-12-27T07:39:38.641Z,6.70
2022-12-27T07:42:08.607Z,6.70
2022-12-27T07:44:39.296Z,6.60
2022-12-27T07:47:08.655Z,6.60
2022-12-27T07:49:36.620Z,6.60
2022-12-27T07:52:04.747Z,6.50
2022-12-27T07:54:32.709Z,6.50
2022-12-27T07:57:00.734Z,6.40
2022-12-27T07:59:28.695Z,6.40
2022-12-27T08:02:05.724Z,6.40
2022-12-27T08:04:37.331Z,6.40
2022-12-27T08:07:10.141Z,6.40
2022-12-27T08:09:40.569Z,6.40
2022-12-27T08:12:09.592Z,6.40
2022-12-27T08:14:37.929Z,6.40
2022-12-27T08:17:08.383Z,6.40
2022-12-27T08:19:37.829Z,6.40
2022-12-27T08:22:06.185Z,6.50
2022-12-27T08:24:34.215Z,6.50
2022-12-27T08:27:02.220Z,6.50
2022-12-27T08:29:30.738Z,6.50
2022-12-27T08:31:58.771Z,6.50
2022-12-27T08:34:26.773Z,6.60
2022-12-27T08:36:56.753Z,6.60
2022-12-27T08:39:25.235Z,6.60
2022-12-27T08:41:54.179Z,6.60
2022-12-27T08:44:22.313Z,6.60
2022-12-27T08:46:50.490Z,6.60
2022-12-27T08:49:18.967Z,6.60
2022-12-27T08:51:46.922Z,6.60
2022-12-27T08:54:16.506Z,6.70
2022-12-27T08:56:44.525Z,6.70
2022-12-27T08:59:12.553Z,6.80
2022-12-27T09:01:40.726Z,6.80
2022-12-27T09:04:09.087Z,6.90
2022-12-27T09:06:37.132Z,7.00
2022-12-27T09:09:05.368Z,7.00
2022-12-27T09:11:35.919Z,7.00
2022-12-27T09:14:05.380Z,7.10
2022-12-27T09:16:35.499Z,7.10
2022-12-27T09:19:04.632Z,7.20
2022-12-27T09:21:34.790Z,7.20
2022-12-27T09:24:02.859Z,7.20
2022-12-27T09:26:31.930Z,7.20
2022-12-27T09:29:01.931Z,7.30
2022-12-27T09:31:30.129Z,7.30
2022-12-27T09:33:58.548Z,7.30
2022-12-27T09:36:28.802Z,7.40
2022-12-27T09:38:58.759Z,7.40
2022-12-27T09:44:36.284Z,7.50
2022-12-27T09:47:11.454Z,7.50
2022-12-27T09:49:42.501Z,7.50
2022-12-27T09:52:15.029Z,7.60
2022-12-27T09:54:59.391Z,7.70
2022-12-27T09:57:37.892Z,7.80
2022-12-27T10:00:14.671Z,7.80
2022-12-27T10:02:44.385Z,7.90
2022-12-27T10:05:20.744Z,7.90
2022-12-27T10:08:03.053Z,8.00
2022-12-27T10:10:42.157Z,8.00
2022-12-27T10:13:30.619Z,8.00
2022-12-27T10:16:11.691Z,8.10
2022-12-27T10:18:49.848Z,8.10
2022-12-27T10:21:21.984Z,8.10
2022-12-27T10:23:55.469Z,8.20
2022-12-27T10:26:24.539Z,8.20
2022-12-27T10:28:58.574Z,8.30
2022-12-27T10:31:28.815Z,8.40
2022-12-27T10:33:57.016Z,8.40
2022-12-27T10:36:27.561Z,8.50
2022-12-27T10:38:56.063Z,8.50
2022-12-27T10:41:34.717Z,8.60
2022-12-27T10:44:02.696Z,8.70
2022-12-27T10:46:33.977Z,8.70
2022-12-27T10:49:22.079Z,8.70
2022-12-27T10:51:51.654Z,8.70
2022-12-27T10:54:23.992Z,8.80
2022-12-27T10:56:52.110Z,8.80
2022-12-27T10:59:22.235Z,8.80
2022-12-27T11:02:15.780Z,8.80
2022-12-27T11:04:57.923Z,8.90
2022-12-27T11:07:31.392Z,9.00
2022-12-27T11:10:15.245Z,9.00
2022-12-27T11:12:56.350Z,9.10
2022-12-27T11:15:24.823Z,9.20
2022-12-27T11:17:56.852Z,9.20
2022-12-27T11:20:28.964Z,9.20
2022-12-27T11:23:00.586Z,9.20
2022-12-27T11:25:30.612Z,9.30
2022-12-27T11:28:01.671Z,9.20
2022-12-27T11:30:33.521Z,9.20
2022-12-27T11:33:05.854Z,9.20
2022-12-27T11:35:45.992Z,9.20
2022-12-27T11:38:24.438Z,9.20
2022-12-27T11:41:00.975Z,9.30
2022-12-27T11:43:34.740Z,9.30
2022-12-27T11:46:06.710Z,9.30
2022-12-27T11:48:39.291Z,9.40
2022-12-27T11:51:25.306Z,9.40
2022-12-27T11:54:29.837Z,9.50
2022-12-27T11:57:09.437Z,9.50
2022-12-27T11:59:45.927Z,9.50
2022-12-27T12:02:38.748Z,9.50
2022-12-27T12:05:46.541Z,9.40
2022-12-27T12:08:48.951Z,9.50
2022-12-27T12:11:32.253Z,9.50
2022-12-27T12:14:26.593Z,9.60
2022-12-27T12:17:22.485Z,9.70
2022-12-27T12:20:12.725Z,9.70
2022-12-27T12:23:02.790Z,9.70
2022-12-27T12:26:06.807Z,9.70
2022-12-27T12:28:58.656Z,9.70
2022-12-27T12:32:05.201Z,9.70
2022-12-27T12:35:01.764Z,9.70
2022-12-27T12:37:48.355Z,9.70
2022-12-27T12:40:33.931Z,9.70
2022-12-27T12:43:17.934Z,9.70
2022-12-27T12:46:01.980Z,9.70
2022-12-27T12:49:01.644Z,9.60
2022-12-27T12:51:51.337Z,9.70
2022-12-27T12:54:48.120Z,9.70
2022-12-27T12:57:31.937Z,9.60
2022-12-27T13:00:21.037Z,9.60
2022-12-27T13:03:24.678Z,9.60
2022-12-27T13:05:59.028Z,9.50
2022-12-27T13:08:32.197Z,9.50
2022-12-27T13:11:20.476Z,9.60
2022-12-27T13:14:02.914Z,9.60
2022-12-27T13:16:45.227Z,9.60
2022-12-27T13:19:31.228Z,9.70
2022-12-27T13:22:09.130Z,9.80
2022-12-27T13:24:52.867Z,9.80
2022-12-27T13:27:28.317Z,9.90
2022-12-27T13:30:07.631Z,9.80
2022-12-27T13:32:58.458Z,9.80
2022-12-27T13:35:39.460Z,9.90
2022-12-27T13:38:20.302Z,9.80
2022-12-27T13:41:06.190Z,9.80
2022-12-27T13:44:01.441Z,9.80
2022-12-27T13:46:48.585Z,9.80
2022-12-27T13:49:32.903Z,9.90
2022-12-27T13:52:10.583Z,9.90
2022-12-27T13:54:51.685Z,9.90
2022-12-27T13:58:04.439Z,9.90
2022-12-27T14:00:42.972Z,9.80
2022-12-27T14:03:40.498Z,9.80
2022-12-27T14:06:37.463Z,9.80
2022-12-27T14:09:38.970Z,9.80
2022-12-27T14:12:28.081Z,9.80
2022-12-27T14:14:58.231Z,9.90
2022-12-27T14:17:33.331Z,9.90
2022-12-27T14:20:29.676Z,9.90
2022-12-27T14:23:24.876Z,9.80
2022-12-27T14:26:38.970Z,9.90
2022-12-27T14:29:39.366Z,9.90
2022-12-27T14:32:50.618Z,9.90
2022-12-27T14:35:42.373Z,9.90
2022-12-27T14:38:47.978Z,9.90
2022-12-27T14:41:47.425Z,9.90
2022-12-27T14:44:56.979Z,9.90
2022-12-27T14:48:14.040Z,9.80
2022-12-27T14:51:49.991Z,9.80
2022-12-27T14:54:37.087Z,9.70
2022-12-27T14:57:19.157Z,9.80
2022-12-27T14:59:57.247Z,9.80
2022-12-27T15:02:42.201Z,9.70
2022-12-27T15:05:45.885Z,9.70
2022-12-27T15:08:37.812Z,9.60
2022-12-27T15:11:26.100Z,9.60
2022-12-27T15:14:09.955Z,9.60
2022-12-27T15:16:51.476Z,9.60
2022-12-27T15:19:35.274Z,9.60
2022-12-27T15:22:11.316Z,9.60
2022-12-27T15:24:51.771Z,9.60
2022-12-27T15:27:26.582Z,9.60
2022-12-27T15:30:20.429Z,9.50
2022-12-27T15:32:59.570Z,9.40
2022-12-27T15:35:38.092Z,9.30
2022-12-27T15:38:12.818Z,9.30
2022-12-27T15:40:59.613Z,9.20
2022-12-27T15:43:50.438Z,9.20
2022-12-27T15:46:47.133Z,9.10
2022-12-27T15:49:28.053Z,9.00
2022-12-27T15:52:04.026Z,9.00
2022-12-27T15:55:05.815Z,9.00
2022-12-27T15:57:53.488Z,8.90
2022-12-27T16:00:33.531Z,8.90
2022-12-27T16:03:02.915Z,8.90
2022-12-27T16:05:52.215Z,8.90
2022-12-27T16:08:39.998Z,8.90
2022-12-27T16:11:11.288Z,8.80
2022-12-27T16:13:47.186Z,8.80
2022-12-27T16:16:57.130Z,8.80
2022-12-27T16:19:52.375Z,8.80
2022-12-27T16:22:33.323Z,8.70
2022-12-27T16:25:32.225Z,8.70
2022-12-27T16:28:05.379Z,8.70
2022-12-27T16:30:44.091Z,8.70
2022-12-27T16:33:28.965Z,8.70
2022-12-27T16:36:22.874Z,8.70
2022-12-27T16:39:13.819Z,8.60
2022-12-27T16:42:01.105Z,8.60
2022-12-27T16:44:47.534Z,8.60
2022-12-27T16:47:37.743Z,8.60
2022-12-27T16:50:21.454Z,8.50
2022-12-27T16:52:56.918Z,8.60
2022-12-27T16:55:49.720Z,8.50
2022-12-27T16:58:24.459Z,8.40
2022-12-27T17:00:53.366Z,8.40
2022-12-27T17:03:43.728Z,8.40
2022-12-27T17:06:49.545Z,8.30
2022-12-27T17:09:43.466Z,8.30
2022-12-27T17:12:19.457Z,8.30
2022-12-27T17:14:48.442Z,8.20
2022-12-27T17:17:20.993Z,8.20
2022-12-27T17:20:03.844Z,8.10
2022-12-27T17:22:35.361Z,8.10
2022-12-27T17:25:04.861Z,8.10
2022-12-27T17:27:55.838Z,8.00
2022-12-27T17:30:26.456Z,8.00
2022-12-27T17:33:14.088Z,8.10
2022-12-27T17:36:01.095Z,8.00
2022-12-27T17:38:42.422Z,8.00
2022-12-27T17:41:39.311Z,7.90
2022-12-27T17:44:35.132Z,7.90
2022-12-27T17:47:15.734Z,7.90
2022-12-27T17:49:44.862Z,7.90
2022-12-27T17:52:35.942Z,7.90
2022-12-27T17:55:36.442Z,7.80
2022-12-27T17:58:08.274Z,7.80
2022-12-27T18:00:44.878Z,7.80
2022-12-27T18:03:15.192Z,7.70
2022-12-27T18:05:45.181Z,7.70
2022-12-27T18:08:25.927Z,7.60
2022-12-27T18:10:54.030Z,7.60
2022-12-27T18:13:25.772Z,7.60
2022-12-27T18:15:54.462Z,7.60
2022-12-27T18:18:27.727Z,7.60
2022-12-27T18:20:59.537Z,7.60
2022-12-27T18:23:29.143Z,7.70
2022-12-27T18:26:04.857Z,7.60
2022-12-27T18:28:35.721Z,7.60
2022-12-27T18:31:09.928Z,7.60
2022-12-27T18:33:41.907Z,7.60
2022-12-27T18:36:13.798Z,7.60
2022-12-27T18:38:46.300Z,7.60
2022-12-27T18:41:17.500Z,7.60
2022-12-27T18:43:49.106Z,7.60
2022-12-27T18:46:22.311Z,7.60
2022-12-27T18:48:50.377Z,7.60
2022-12-27T18:51:18.847Z,7.60
2022-12-27T18:53:48.385Z,7.60
2022-12-27T18:56:30.470Z,7.60
2022-12-27T18:59:03.666Z,7.60
2022-12-27T19:01:40.381Z,7.50
2022-12-27T19:04:21.483Z,7.60
2022-12-27T19:06:59.492Z,7.50
2022-12-27T19:09:31.454Z,7.50
2022-12-27T19:12:05.879Z,7.50
2022-12-27T19:14:44.773Z,7.40
2022-12-27T19:17:19.378Z,7.40
2022-12-27T19:19:50.148Z,7.40
2022-12-27T19:22:31.916Z,7.40
2022-12-27T19:25:03.024Z,7.40
2022-12-27T19:27:31.242Z,7.30
2022-12-27T19:30:00.027Z,7.30
2022-12-27T19:32:33.621Z,7.30
2022-12-27T19:35:04.384Z,7.30
2022-12-27T19:37:34.968Z,7.30
2022-12-27T19:40:06.418Z,7.30
2022-12-27T19:42:35.789Z,7.30
2022-12-27T19:45:03.912Z,7.20
2022-12-27T19:47:33.035Z,7.20
2022-12-27T19:50:01.121Z,7.20
2022-12-27T19:52:29.351Z,7.10
2022-12-27T19:55:02.629Z,7.20
2022-12-27T19:57:32.046Z,7.10
2022-12-27T20:00:00.073Z,7.10
2022-12-27T20:02:28.682Z,7.10
2022-12-27T20:04:56.764Z,7.10
2022-12-27T20:07:26.381Z,7.10
2022-12-27T20:09:54.420Z,7.10
2022-12-27T20:12:22.472Z,7.10
2022-12-27T20:14:52.002Z,7.20
2022-12-27T20:17:20.121Z,7.10
2022-12-27T20:19:48.264Z,7.10
2022-12-27T20:22:16.367Z,7.20
2022-12-27T20:24:46.481Z,7.20
2022-12-27T20:27:14.576Z,7.10
2022-12-27T20:29:42.668Z,7.10
2022-12-27T20:32:12.156Z,7.00
2022-12-27T20:34:40.233Z,7.00
2022-12-27T20:37:08.235Z,6.90
2022-12-27T20:39:36.334Z,6.90
2022-12-27T20:42:04.390Z,6.90
2022-12-27T20:44:32.467Z,6.80
2022-12-27T20:47:00.546Z,6.80
2022-12-27T20:49:29.881Z,6.80
2022-12-27T20:51:58.088Z,6.70
2022-12-27T20:54:26.164Z,6.60
2022-12-27T20:56:54.276Z,6.60
2022-12-27T20:59:22.491Z,6.50
2022-12-27T21:01:56.547Z,6.50
2022-12-27T21:04:26.709Z,6.50
2022-12-27T21:06:56.216Z,6.50
2022-12-27T21:09:24.328Z,6.50
2022-12-27T21:11:53.393Z,6.50
2022-12-27T21:14:21.421Z,6.50
2022-12-27T21:16:49.667Z,6.50
2022-12-27T21:19:17.738Z,6.40
2022-12-27T21:21:45.907Z,6.50
2022-12-27T21:24:15.342Z,6.50
2022-12-27T21:26:43.443Z,6.50
2022-12-27T21:29:12.265Z,6.50
2022-12-27T21:31:40.543Z,6.60
2022-12-27T21:34:08.602Z,6.50
2022-12-27T21:36:38.282Z,6.60
2022-12-27T21:39:07.461Z,6.60
2022-12-27T21:41:38.314Z,6.60
2022-12-27T21:44:07.267Z,6.70
2022-12-27T21:46:36.760Z,6.70
2022-12-27T21:49:06.360Z,6.70
2022-12-27T21:51:35.414Z,6.70
2022-12-27T21:54:04.192Z,6.80
2022-12-27T21:56:32.574Z,6.80
2022-12-27T21:59:04.535Z,6.80
2022-12-27T22:01:52.148Z,6.80
2022-12-27T22:04:21.533Z,6.80
2022-12-27T22:06:50.070Z,6.90
2022-12-27T22:09:19.097Z,6.90
2022-12-27T22:11:47.467Z,6.90
2022-12-27T22:14:18.727Z,7.00
2022-12-27T22:16:49.914Z,7.00
2022-12-27T22:19:17.930Z,7.00
2022-12-27T22:21:45.951Z,7.00
2022-12-27T22:24:19.361Z,7.10
2022-12-27T22:26:48.626Z,7.10
2022-12-27T22:29:18.455Z,7.20
2022-12-27T22:31:46.600Z,7.20
2022-12-27T22:34:14.633Z,7.10
2022-12-27T22:36:42.632Z,7.10
2022-12-27T22:39:10.835Z,7.10
2022-12-27T22:41:38.935Z,7.10
2022-12-27T22:44:08.798Z,7.10
2022-12-27T22:47:15.320Z,7.00
2022-12-27T22:49:26.664Z,7.00
2022-12-27T22:51:54.679Z,6.90
2022-12-27T22:55:05.483Z,7.00
2022-12-27T22:57:10.842Z,7.00
2022-12-27T22:59:38.875Z,7.00
2022-12-27T23:02:08.429Z,7.00
2022-12-27T23:04:36.529Z,7.00
2022-12-27T23:07:05.118Z,7.00
2022-12-27T23:09:36.531Z,6.90
2022-12-27T23:12:09.041Z,7.00
2022-12-27T23:14:37.086Z,7.00
2022-12-27T23:17:05.210Z,7.00
2022-12-27T23:19:34.632Z,7.00
2022-12-27T23:22:02.641Z,7.00
2022-12-27T23:24:30.692Z,7.00
2022-12-27T23:26:58.743Z,7.00
2022-12-27T23:29:26.863Z,7.00
2022-12-27T23:31:56.075Z,7.10
2022-12-27T23:34:28.197Z,7.10
2022-12-27T23:36:58.847Z,7.20
2022-12-27T23:39:27.073Z,7.10
2022-12-27T23:41:55.318Z,7.20
2022-12-27T23:44:34.234Z,7.20
2022-12-27T23:47:04.170Z,7.20
2022-12-27T23:49:32.449Z,7.20
2022-12-27T23:52:01.941Z,7.20
2022-12-27T23:54:30.011Z,7.20
2022-12-27T23:56:58.170Z,7.20
2022-12-27T23:59:46.245Z,7.10
